createdAt,value
2019-03-15T00:00:33.775Z,0.0
2019-03-15T00:03:28.455Z,0.0
2019-03-15T00:06:29.121Z,0.0
2019-03-15T00:09:28.736Z,0.0
2019-03-15T00:12:28.528Z,0.0
2019-03-15T00:15:28.188Z,0.0
2019-03-15T00:18:28.773Z,0.0
2019-03-15T00:21:28.363Z,0.0
2019-03-15T00:24:28.358Z,0.0
2019-03-15T00:27:29.045Z,0.0
2019-03-15T00:30:28.628Z,0.0
2019-03-15T00:33:28.424Z,0.0
2019-03-15T00:36:29.091Z,0.0
2019-03-15T00:39:28.562Z,0.0
2019-03-15T00:42:28.111Z,0.0
2019-03-15T00:45:28.706Z,0.0
2019-03-15T00:48:28.473Z,0.0
2019-03-15T00:51:28.122Z,0.0
2019-03-15T00:54:28.752Z,0.0
2019-03-15T00:57:28.363Z,0.0
2019-03-15T01:00:28.831Z,0.0
2019-03-15T01:03:28.355Z,0.0
2019-03-15T01:06:29.013Z,0.0
2019-03-15T01:09:28.702Z,0.0
2019-03-15T01:12:28.421Z,0.0
2019-03-15T01:18:28.661Z,0.0
2019-03-15T01:21:28.342Z,0.0
2019-03-15T01:24:28.989Z,0.0
2019-03-15T01:27:28.569Z,0.0
2019-03-15T01:30:28.219Z,0.0
2019-03-15T01:33:28.978Z,0.0
2019-03-15T01:36:28.653Z,0.0
2019-03-15T01:39:28.422Z,0.0
2019-03-15T01:42:29.174Z,0.0
2019-03-15T01:45:28.836Z,0.0
2019-03-15T01:48:28.651Z,0.0
2019-03-15T01:51:28.745Z,0.0
2019-03-15T01:54:28.558Z,0.0
2019-03-15T01:57:28.247Z,0.0
2019-03-15T02:00:29.004Z,0.0
2019-03-15T02:03:28.803Z,0.0
2019-03-15T02:06:28.349Z,0.0
2019-03-15T02:09:29.082Z,0.0
2019-03-15T02:12:28.867Z,0.0
2019-03-15T02:15:28.569Z,0.0
2019-03-15T02:18:28.470Z,0.0
2019-03-15T02:21:29.034Z,0.0
2019-03-15T02:24:28.757Z,0.0
2019-03-15T02:27:28.460Z,0.0
2019-03-15T02:30:28.182Z,0.0
2019-03-15T02:33:28.876Z,0.0
2019-03-15T02:36:28.857Z,0.0
2019-03-15T02:39:28.544Z,0.0
2019-03-15T02:42:28.243Z,0.0
2019-03-15T02:45:29.065Z,0.0
2019-03-15T02:48:28.758Z,0.0
2019-03-15T02:51:28.379Z,0.0
2019-03-15T02:54:28.963Z,0.0
2019-03-15T02:57:28.589Z,0.0
2019-03-15T03:00:28.393Z,0.0
2019-03-15T03:03:29.040Z,0.0
2019-03-15T03:06:29.048Z,0.0
2019-03-15T03:09:28.697Z,0.0
2019-03-15T03:12:28.379Z,0.0
2019-03-15T03:15:28.280Z,0.0
2019-03-15T03:18:28.927Z,0.0
2019-03-15T03:21:28.711Z,0.0
2019-03-15T03:24:28.404Z,0.0
2019-03-15T03:27:29.061Z,0.0
2019-03-15T03:30:30.825Z,0.0
2019-03-15T03:33:28.615Z,0.0
2019-03-15T03:36:28.597Z,0.0
2019-03-15T03:39:28.220Z,0.0
2019-03-15T03:42:28.954Z,0.0
2019-03-15T03:45:28.819Z,0.0
2019-03-15T03:48:29.437Z,0.0
2019-03-15T03:51:29.262Z,0.0
2019-03-15T03:54:30.451Z,0.0
2019-03-15T03:57:28.315Z,0.0
2019-03-15T04:00:29.195Z,0.0
2019-03-15T04:03:28.967Z,0.0
2019-03-15T04:06:28.560Z,0.0
2019-03-15T04:09:28.398Z,0.0
2019-03-15T04:12:29.180Z,0.0
2019-03-15T04:15:28.785Z,0.0
2019-03-15T04:18:28.674Z,0.0
2019-03-15T04:21:28.509Z,0.0
2019-03-15T04:24:28.199Z,0.0
2019-03-15T04:27:28.767Z,0.0
2019-03-15T04:30:28.501Z,0.0
2019-03-15T04:33:28.328Z,0.0
2019-03-15T04:36:29.123Z,0.0
2019-03-15T04:39:28.814Z,0.0
2019-03-15T04:42:28.451Z,0.0
2019-03-15T04:45:29.163Z,0.0
2019-03-15T04:48:29.043Z,0.0
2019-03-15T04:51:28.835Z,0.0
2019-03-15T04:54:28.487Z,0.0
2019-03-15T04:57:28.159Z,0.0
2019-03-15T05:00:28.889Z,0.0
2019-03-15T05:03:28.599Z,0.0
2019-03-15T05:06:28.285Z,0.0
2019-03-15T05:09:29.047Z,0.0
2019-03-15T05:12:28.652Z,0.0
2019-03-15T05:15:28.410Z,0.0
2019-03-15T05:18:28.277Z,0.0
2019-03-15T05:21:28.932Z,0.0
2019-03-15T05:24:28.588Z,0.0
2019-03-15T05:27:28.716Z,0.0
2019-03-15T05:30:28.362Z,0.0
2019-03-15T05:33:29.083Z,0.0
2019-03-15T05:36:29.042Z,0.0
2019-03-15T05:39:28.758Z,0.0
2019-03-15T05:42:28.453Z,0.0
2019-03-15T05:45:29.126Z,0.0
2019-03-15T05:48:28.778Z,0.0
2019-03-15T05:51:28.533Z,0.0
2019-03-15T05:54:28.597Z,0.0
2019-03-15T05:57:28.296Z,0.0
2019-03-15T06:00:29.376Z,0.0
2019-03-15T06:03:29.038Z,0.01
2019-03-15T06:06:28.955Z,0.0
2019-03-15T06:09:28.712Z,0.0
2019-03-15T06:12:28.751Z,0.0
2019-03-15T06:15:28.476Z,0.02
2019-03-15T06:18:28.483Z,0.02
2019-03-15T06:21:29.189Z,0.03
2019-03-15T06:24:29.235Z,0.03
2019-03-15T06:27:31.224Z,0.0
2019-03-15T06:30:28.510Z,0.03
2019-03-15T06:33:28.938Z,0.04
2019-03-15T06:36:29.036Z,0.0
2019-03-15T06:39:28.876Z,0.0
2019-03-15T06:42:28.707Z,0.04
2019-03-15T06:45:28.810Z,0.04
2019-03-15T06:48:28.586Z,0.0
2019-03-15T06:51:28.481Z,0.05
2019-03-15T06:54:28.221Z,0.01
2019-03-15T06:57:28.910Z,0.01
2019-03-15T07:00:28.840Z,0.05
2019-03-15T07:03:28.874Z,0.01
2019-03-15T07:06:28.649Z,0.01
2019-03-15T07:09:30.852Z,0.01
2019-03-15T07:12:28.916Z,0.02
2019-03-15T07:15:28.666Z,0.07
2019-03-15T07:18:31.960Z,0.02
2019-03-15T07:21:28.307Z,0.02
2019-03-15T07:24:38.937Z,0.07
2019-03-15T07:27:30.033Z,0.03
2019-03-15T07:30:28.764Z,0.04
2019-03-15T07:33:28.542Z,0.09
2019-03-15T07:36:28.538Z,0.06
2019-03-15T07:39:28.134Z,0.11
2019-03-15T08:03:28.900Z,0.14
2019-03-15T08:12:28.853Z,0.14
2019-03-15T08:18:28.170Z,0.12
2019-03-15T08:24:28.539Z,0.12
2019-03-15T08:27:29.545Z,0.07
2019-03-15T08:30:28.297Z,0.07
2019-03-15T08:33:28.948Z,0.12
2019-03-15T08:36:28.692Z,0.08
2019-03-15T08:39:28.252Z,0.14
2019-03-15T08:42:29.145Z,0.09
2019-03-15T08:45:29.114Z,0.17
2019-03-15T08:48:31.792Z,0.1
2019-03-15T08:54:28.341Z,0.18
2019-03-15T08:57:29.009Z,0.12
2019-03-15T09:03:41.710Z,0.11
2019-03-15T09:06:28.414Z,0.22
2019-03-15T09:09:29.244Z,0.22
2019-03-15T09:12:29.098Z,0.18
2019-03-15T09:18:28.593Z,0.29
2019-03-15T09:21:28.410Z,0.18
2019-03-15T09:24:29.277Z,0.15
2019-03-15T09:27:29.261Z,0.17
2019-03-15T09:30:37.372Z,0.18
2019-03-15T09:33:27.998Z,0.33
2019-03-15T09:39:28.346Z,0.37
2019-03-15T09:42:29.211Z,0.2
2019-03-15T09:45:29.068Z,0.27
2019-03-15T09:48:28.715Z,0.33
2019-03-15T09:51:28.539Z,0.27
2019-03-15T09:54:28.506Z,0.23
2019-03-15T09:57:28.450Z,0.26
2019-03-15T10:00:28.292Z,0.2
2019-03-15T10:03:35.824Z,0.24
2019-03-15T10:06:33.036Z,0.28
2019-03-15T10:09:28.888Z,0.21
2019-03-15T10:12:28.394Z,0.2
2019-03-15T10:15:29.201Z,0.2
2019-03-15T10:18:29.231Z,0.15
2019-03-15T10:21:29.151Z,0.16
2019-03-15T10:24:29.373Z,0.17
2019-03-15T10:27:29.241Z,0.18
2019-03-15T10:30:29.110Z,0.17
2019-03-15T10:33:28.967Z,0.11
2019-03-15T10:36:28.693Z,0.17
2019-03-15T10:39:29.566Z,0.15
2019-03-15T10:42:28.447Z,0.15
2019-03-15T10:45:28.378Z,0.11
2019-03-15T10:48:38.932Z,0.12
2019-03-15T10:51:28.867Z,0.08
2019-03-15T10:54:28.819Z,0.12
2019-03-15T10:57:29.669Z,0.11
2019-03-15T11:00:29.167Z,0.09
2019-03-15T11:03:30.344Z,0.11
2019-03-15T11:06:29.287Z,0.1
2019-03-15T11:09:30.056Z,0.09
2019-03-15T11:12:29.219Z,0.1
2019-03-15T11:15:36.202Z,0.15
2019-03-15T11:18:30.092Z,0.1
2019-03-15T11:21:30.603Z,0.12
2019-03-15T11:24:28.629Z,0.1
2019-03-15T11:27:28.617Z,0.18
2019-03-15T11:30:28.506Z,0.21
2019-03-15T11:33:28.375Z,0.13
2019-03-15T11:36:29.094Z,0.16
2019-03-15T11:39:28.902Z,0.13
2019-03-15T11:42:28.802Z,0.13
2019-03-15T11:45:28.609Z,0.15
2019-03-15T11:48:28.603Z,0.15
2019-03-15T11:51:28.317Z,0.14
2019-03-15T11:54:29.197Z,0.15
2019-03-15T11:57:29.035Z,0.2
2019-03-15T12:00:28.857Z,0.17
2019-03-15T12:03:28.766Z,0.15
2019-03-15T12:06:28.742Z,0.12
2019-03-15T12:09:28.434Z,0.16
2019-03-15T12:12:28.265Z,0.09
2019-03-15T12:15:29.831Z,0.16
2019-03-15T12:18:32.263Z,0.2
2019-03-15T12:21:36.281Z,0.13
2019-03-15T12:24:29.050Z,0.36
2019-03-15T12:27:38.693Z,0.32
2019-03-15T12:30:35.122Z,0.21
2019-03-15T12:33:32.819Z,0.29
2019-03-15T12:36:28.841Z,0.26
2019-03-15T12:39:28.764Z,0.21
2019-03-15T12:42:28.641Z,0.24
2019-03-15T12:45:28.295Z,0.19
2019-03-15T12:48:29.109Z,0.15
2019-03-15T12:54:29.249Z,0.07
2019-03-15T12:57:28.888Z,0.15
2019-03-15T13:00:28.823Z,0.15
2019-03-15T13:03:28.378Z,0.11
2019-03-15T13:15:31.791Z,0.18
2019-03-15T13:21:28.571Z,0.27
2019-03-15T13:27:30.491Z,0.29
2019-03-15T13:30:28.199Z,0.29
2019-03-15T13:33:34.359Z,0.29
2019-03-15T13:39:28.744Z,0.28
2019-03-15T13:45:29.034Z,0.28
2019-03-15T13:54:28.313Z,0.09
2019-03-15T14:03:28.444Z,0.19
2019-03-15T14:06:28.624Z,0.19
2019-03-15T14:09:28.542Z,0.22
2019-03-15T14:12:28.242Z,0.15
2019-03-15T14:15:29.184Z,0.11
2019-03-15T14:18:29.007Z,0.18
2019-03-15T14:21:28.862Z,0.16
2019-03-15T14:24:28.803Z,0.16
2019-03-15T14:27:37.529Z,0.17
2019-03-15T14:30:28.924Z,0.2
2019-03-15T14:33:28.945Z,0.19
2019-03-15T14:36:28.696Z,0.26
2019-03-15T14:39:28.763Z,0.21
2019-03-15T14:42:29.003Z,0.2
2019-03-15T14:45:29.212Z,0.17
2019-03-15T14:48:29.376Z,0.18
2019-03-15T14:51:29.233Z,0.14
2019-03-15T14:54:29.150Z,0.07
2019-03-15T14:57:29.008Z,0.13
2019-03-15T15:00:28.914Z,0.1
2019-03-15T15:03:28.723Z,0.05
2019-03-15T15:06:28.588Z,0.14
2019-03-15T15:09:28.372Z,0.03
2019-03-15T15:12:29.122Z,0.06
2019-03-15T15:15:28.958Z,0.09
2019-03-15T15:18:28.846Z,0.14
2019-03-15T15:21:28.590Z,0.12
2019-03-15T15:24:28.515Z,0.16
2019-03-15T15:27:28.360Z,0.08
2019-03-15T15:30:35.125Z,0.02
2019-03-15T15:33:36.452Z,0.04
2019-03-15T15:36:36.250Z,0.02
2019-03-15T15:39:28.738Z,0.05
2019-03-15T15:42:28.543Z,0.09
2019-03-15T15:45:29.880Z,0.03
2019-03-15T15:48:29.180Z,0.02
2019-03-15T15:51:29.026Z,0.0
2019-03-15T15:54:28.912Z,0.03
2019-03-15T15:57:28.577Z,0.05
2019-03-15T16:00:28.524Z,0.02
2019-03-15T16:03:28.508Z,0.06
2019-03-15T16:06:28.310Z,0.02
2019-03-15T16:09:29.173Z,0.09
2019-03-15T16:12:28.900Z,0.03
2019-03-15T16:15:28.835Z,0.03
2019-03-15T16:18:28.852Z,0.07
2019-03-15T16:21:28.706Z,0.08
2019-03-15T16:24:28.489Z,0.05
2019-03-15T16:27:28.304Z,0.04
2019-03-15T16:30:29.227Z,0.0
2019-03-15T16:33:29.059Z,0.0
2019-03-15T16:36:28.935Z,0.0
2019-03-15T16:39:28.673Z,0.03
2019-03-15T16:42:28.470Z,0.03
2019-03-15T16:45:28.765Z,0.0
2019-03-15T16:48:28.426Z,0.03
2019-03-15T16:51:33.407Z,0.0
2019-03-15T16:54:28.266Z,0.02
2019-03-15T16:57:29.121Z,0.02
2019-03-15T17:00:28.946Z,0.02
2019-03-15T17:03:28.922Z,0.0
2019-03-15T17:06:28.457Z,0.0
2019-03-15T17:09:28.234Z,0.0
2019-03-15T17:12:29.082Z,0.01
2019-03-15T17:15:29.156Z,0.0
2019-03-15T17:18:29.086Z,0.0
2019-03-15T17:21:28.994Z,0.01
2019-03-15T17:24:28.710Z,0.0
2019-03-15T17:27:28.487Z,0.0
2019-03-15T17:30:28.326Z,0.0
2019-03-15T17:33:29.242Z,0.0
2019-03-15T17:36:28.947Z,0.0
2019-03-15T17:39:28.653Z,0.0
2019-03-15T17:42:28.558Z,0.0
2019-03-15T17:45:28.313Z,0.0
2019-03-15T17:48:29.025Z,0.0
2019-03-15T17:51:28.886Z,0.0
2019-03-15T17:54:28.577Z,0.0
2019-03-15T17:57:28.374Z,0.0
2019-03-15T18:00:33.998Z,0.0
2019-03-15T18:03:35.098Z,0.0
2019-03-15T18:06:28.872Z,0.0
2019-03-15T18:09:28.587Z,0.0
2019-03-15T18:12:28.315Z,0.0
2019-03-15T18:15:29.107Z,0.0
2019-03-15T18:18:29.013Z,0.0
2019-03-15T18:21:28.969Z,0.0
2019-03-15T18:24:28.842Z,0.0
2019-03-15T18:27:28.626Z,0.0
2019-03-15T18:30:28.546Z,0.0
2019-03-15T18:33:28.432Z,0.0
2019-03-15T18:36:29.132Z,0.0
2019-03-15T18:39:29.042Z,0.0
2019-03-15T18:42:28.945Z,0.0
2019-03-15T18:45:28.878Z,0.0
2019-03-15T18:48:28.811Z,0.0
2019-03-15T18:51:28.561Z,0.0
2019-03-15T18:54:39.161Z,0.0
2019-03-15T18:57:28.870Z,0.0
2019-03-15T19:00:28.649Z,0.0
2019-03-15T19:03:28.297Z,0.0
2019-03-15T19:06:29.113Z,0.0
2019-03-15T19:09:28.920Z,0.0
2019-03-15T19:12:28.500Z,0.0
2019-03-15T19:15:28.132Z,0.0
2019-03-15T19:18:28.893Z,0.0
2019-03-15T19:21:28.439Z,0.0
2019-03-15T19:24:29.051Z,0.0
2019-03-15T19:27:28.767Z,0.0
2019-03-15T19:30:28.649Z,0.0
2019-03-15T19:33:28.363Z,0.0
2019-03-15T19:36:28.918Z,0.0
2019-03-15T19:39:28.576Z,0.0
2019-03-15T19:42:28.075Z,0.0
2019-03-15T19:45:28.762Z,0.0
2019-03-15T19:48:28.372Z,0.0
2019-03-15T19:51:29.270Z,0.0
2019-03-15T19:54:31.785Z,0.0
2019-03-15T19:57:28.810Z,0.0
2019-03-15T20:00:28.442Z,0.0
2019-03-15T20:03:29.143Z,0.0
2019-03-15T20:06:28.552Z,0.0
2019-03-15T20:09:28.278Z,0.0
2019-03-15T20:12:28.942Z,0.0
2019-03-15T20:15:28.812Z,0.0
2019-03-15T20:18:28.559Z,0.0
2019-03-15T20:21:28.209Z,0.0
2019-03-15T20:24:28.949Z,0.0
2019-03-15T20:27:28.544Z,0.0
2019-03-15T20:30:34.565Z,0.0
2019-03-15T20:33:30.020Z,0.0
2019-03-15T20:36:28.618Z,0.0
2019-03-15T20:39:28.459Z,0.0
2019-03-15T20:42:28.139Z,0.0
2019-03-15T20:45:29.003Z,0.0
2019-03-15T20:48:28.623Z,0.0
2019-03-15T20:51:28.182Z,0.0
2019-03-15T20:54:28.946Z,0.0
2019-03-15T20:57:28.625Z,0.0
2019-03-15T21:00:35.411Z,0.0
2019-03-15T21:03:29.076Z,0.0
2019-03-15T21:06:28.892Z,0.0
2019-03-15T21:09:28.509Z,0.0
2019-03-15T21:12:28.293Z,0.0
2019-03-15T21:15:29.104Z,0.0
2019-03-15T21:18:28.887Z,0.0
2019-03-15T21:21:28.575Z,0.0
2019-03-15T21:24:28.294Z,0.0
2019-03-15T21:27:29.163Z,0.0
2019-03-15T21:30:28.865Z,0.0
2019-03-15T21:33:28.577Z,0.0
2019-03-15T21:36:28.176Z,0.0
2019-03-15T21:39:28.746Z,0.0
2019-03-15T21:42:28.794Z,0.0
2019-03-15T21:45:28.455Z,0.0
2019-03-15T21:48:29.065Z,0.0
2019-03-15T21:51:28.769Z,0.0
2019-03-15T21:57:29.040Z,0.0
2019-03-15T22:03:28.335Z,0.0
2019-03-15T22:18:28.923Z,0.0
2019-03-15T22:39:28.586Z,0.0
2019-03-15T23:15:28.759Z,0.0
2019-03-15T23:21:28.942Z,0.0
2019-03-15T23:30:28.625Z,0.0
2019-03-15T23:51:28.241Z,0.0
2019-03-15T23:54:28.703Z,0.0
2019-03-15T23:57:28.187Z,0.0
